sensor_id;sensor_type;location;lat;lon;timestamp;temperature;humidity
16263;DHT22;8239;48.594;8.598;2022-09-13T00:01:45;9.90;99.90
16263;DHT22;8239;48.594;8.598;2022-09-13T00:04:12;9.90;99.90
16263;DHT22;8239;48.594;8.598;2022-09-13T00:06:39;9.90;99.90
16263;DHT22;8239;48.594;8.598;2022-09-13T00:09:06;9.90;99.90
16263;DHT22;8239;48.594;8.598;2022-09-13T00:11:33;9.90;99.90
16263;DHT22;8239;48.594;8.598;2022-09-13T00:14:01;9.80;99.90
16263;DHT22;8239;48.594;8.598;2022-09-13T00:16:28;9.80;99.90
16263;DHT22;8239;48.594;8.598;2022-09-13T00:18:55;9.80;99.90
16263;DHT22;8239;48.594;8.598;2022-09-13T00:21:23;9.80;99.90
16263;DHT22;8239;48.594;8.598;2022-09-13T00:23:51;9.80;99.90
16263;DHT22;8239;48.594;8.598;2022-09-13T00:26:20;9.80;99.90
16263;DHT22;8239;48.594;8.598;2022-09-13T00:28:48;9.70;99.90
16263;DHT22;8239;48.594;8.598;2022-09-13T00:31:18;9.70;99.90
16263;DHT22;8239;48.594;8.598;2022-09-13T00:33:45;9.70;99.90
16263;DHT22;8239;48.594;8.598;2022-09-13T00:36:12;9.70;99.90
16263;DHT22;8239;48.594;8.598;2022-09-13T00:38:41;9.60;99.90
16263;DHT22;8239;48.594;8.598;2022-09-13T00:41:11;9.60;99.90
16263;DHT22;8239;48.594;8.598;2022-09-13T00:43:45;9.60;99.90
16263;DHT22;8239;48.594;8.598;2022-09-13T00:46:19;9.60;99.90
16263;DHT22;8239;48.594;8.598;2022-09-13T00:48:48;9.60;99.90
16263;DHT22;8239;48.594;8.598;2022-09-13T00:51:16;9.50;99.90
16263;DHT22;8239;48.594;8.598;2022-09-13T00:53:46;9.50;99.90
16263;DHT22;8239;48.594;8.598;2022-09-13T00:56:17;9.40;99.90
16263;DHT22;8239;48.594;8.598;2022-09-13T00:58:48;9.40;99.90
16263;DHT22;8239;48.594;8.598;2022-09-13T01:01:20;9.40;99.90
16263;DHT22;8239;48.594;8.598;2022-09-13T01:03:49;9.30;99.90
16263;DHT22;8239;48.594;8.598;2022-09-13T01:06:21;9.30;99.90
16263;DHT22;8239;48.594;8.598;2022-09-13T01:08:49;9.20;99.90
16263;DHT22;8239;48.594;8.598;2022-09-13T01:11:23;9.20;99.90
16263;DHT22;8239;48.594;8.598;2022-09-13T01:13:54;9.20;99.90
16263;DHT22;8239;48.594;8.598;2022-09-13T01:16:23;9.10;99.90
16263;DHT22;8239;48.594;8.598;2022-09-13T01:18:50;9.10;99.90
16263;DHT22;8239;48.594;8.598;2022-09-13T01:21:47;9.10;99.90
16263;DHT22;8239;48.594;8.598;2022-09-13T01:24:47;9.10;99.90
16263;DHT22;8239;48.594;8.598;2022-09-13T01:27:46;9.10;99.90
16263;DHT22;8239;48.594;8.598;2022-09-13T01:30:21;9.10;99.90
16263;DHT22;8239;48.594;8.598;2022-09-13T01:36:27;9.10;99.90
16263;DHT22;8239;48.594;8.598;2022-09-13T01:39:03;9.00;99.90
16263;DHT22;8239;48.594;8.598;2022-09-13T01:41:50;9.00;99.90
16263;DHT22;8239;48.594;8.598;2022-09-13T01:44:28;9.00;99.90
16263;DHT22;8239;48.594;8.598;2022-09-13T01:47:04;9.00;99.90
16263;DHT22;8239;48.594;8.598;2022-09-13T01:49:38;8.90;99.90
16263;DHT22;8239;48.594;8.598;2022-09-13T01:52:16;9.00;99.90
16263;DHT22;8239;48.594;8.598;2022-09-13T01:54:52;9.00;99.90
16263;DHT22;8239;48.594;8.598;2022-09-13T01:57:27;9.00;99.90
16263;DHT22;8239;48.594;8.598;2022-09-13T01:59:59;9.00;99.90
16263;DHT22;8239;48.594;8.598;2022-09-13T02:02:31;9.00;99.90
16263;DHT22;8239;48.594;8.598;2022-09-13T02:05:05;9.00;99.90
16263;DHT22;8239;48.594;8.598;2022-09-13T02:07:37;8.90;99.90
16263;DHT22;8239;48.594;8.598;2022-09-13T02:10:11;8.90;99.90
16263;DHT22;8239;48.594;8.598;2022-09-13T02:12:41;8.90;99.90
16263;DHT22;8239;48.594;8.598;2022-09-13T02:15:12;9.00;99.90
16263;DHT22;8239;48.594;8.598;2022-09-13T02:17:48;9.00;99.90
16263;DHT22;8239;48.594;8.598;2022-09-13T02:20:19;9.00;99.90
16263;DHT22;8239;48.594;8.598;2022-09-13T02:22:51;9.00;99.90
16263;DHT22;8239;48.594;8.598;2022-09-13T02:25:21;9.00;99.90
16263;DHT22;8239;48.594;8.598;2022-09-13T02:27:54;8.90;99.90
16263;DHT22;8239;48.594;8.598;2022-09-13T02:30:26;8.90;99.90
16263;DHT22;8239;48.594;8.598;2022-09-13T02:32:59;8.90;99.90
16263;DHT22;8239;48.594;8.598;2022-09-13T02:35:32;8.90;99.90
16263;DHT22;8239;48.594;8.598;2022-09-13T02:38:04;8.90;99.90
16263;DHT22;8239;48.594;8.598;2022-09-13T02:40:38;8.90;99.90
16263;DHT22;8239;48.594;8.598;2022-09-13T02:43:09;8.90;99.90
16263;DHT22;8239;48.594;8.598;2022-09-13T02:45:44;8.90;99.90
16263;DHT22;8239;48.594;8.598;2022-09-13T02:48:20;8.80;99.90
16263;DHT22;8239;48.594;8.598;2022-09-13T02:50:58;8.80;99.90
16263;DHT22;8239;48.594;8.598;2022-09-13T02:53:30;8.80;99.90
16263;DHT22;8239;48.594;8.598;2022-09-13T02:56:04;8.80;99.90
16263;DHT22;8239;48.594;8.598;2022-09-13T02:58:38;8.80;99.90
16263;DHT22;8239;48.594;8.598;2022-09-13T03:01:08;8.70;99.90
16263;DHT22;8239;48.594;8.598;2022-09-13T03:03:37;8.70;99.90
16263;DHT22;8239;48.594;8.598;2022-09-13T03:06:04;8.70;99.90
16263;DHT22;8239;48.594;8.598;2022-09-13T03:08:32;8.70;99.90
16263;DHT22;8239;48.594;8.598;2022-09-13T03:11:08;8.70;99.90
16263;DHT22;8239;48.594;8.598;2022-09-13T03:14:00;8.70;99.90
16263;DHT22;8239;48.594;8.598;2022-09-13T03:16:42;8.60;99.90
16263;DHT22;8239;48.594;8.598;2022-09-13T03:19:30;8.60;99.90
16263;DHT22;8239;48.594;8.598;2022-09-13T03:22:16;8.50;99.90
16263;DHT22;8239;48.594;8.598;2022-09-13T03:24:53;8.50;99.90
16263;DHT22;8239;48.594;8.598;2022-09-13T03:27:31;8.50;99.90
16263;DHT22;8239;48.594;8.598;2022-09-13T03:30:03;8.40;99.90
16263;DHT22;8239;48.594;8.598;2022-09-13T03:32:35;8.40;99.90
16263;DHT22;8239;48.594;8.598;2022-09-13T03:35:16;8.40;99.90
16263;DHT22;8239;48.594;8.598;2022-09-13T03:37:51;8.40;99.90
16263;DHT22;8239;48.594;8.598;2022-09-13T03:40:24;8.40;99.90
16263;DHT22;8239;48.594;8.598;2022-09-13T03:42:55;8.30;99.90
16263;DHT22;8239;48.594;8.598;2022-09-13T03:45:26;8.40;99.90
16263;DHT22;8239;48.594;8.598;2022-09-13T03:47:55;8.30;99.90
16263;DHT22;8239;48.594;8.598;2022-09-13T03:50:24;8.30;99.90
16263;DHT22;8239;48.594;8.598;2022-09-13T03:52:55;8.20;99.90
16263;DHT22;8239;48.594;8.598;2022-09-13T03:55:24;8.20;99.90
16263;DHT22;8239;48.594;8.598;2022-09-13T03:57:51;8.20;99.90
16263;DHT22;8239;48.594;8.598;2022-09-13T04:00:18;8.20;99.90
16263;DHT22;8239;48.594;8.598;2022-09-13T04:02:45;8.20;99.90
16263;DHT22;8239;48.594;8.598;2022-09-13T04:05:13;8.20;99.90
16263;DHT22;8239;48.594;8.598;2022-09-13T04:07:41;8.20;99.90
16263;DHT22;8239;48.594;8.598;2022-09-13T04:10:09;8.20;99.90
16263;DHT22;8239;48.594;8.598;2022-09-13T04:12:36;8.20;99.90
16263;DHT22;8239;48.594;8.598;2022-09-13T04:15:06;8.30;99.90
16263;DHT22;8239;48.594;8.598;2022-09-13T04:17:34;8.30;99.90
16263;DHT22;8239;48.594;8.598;2022-09-13T04:20:02;8.40;99.90
16263;DHT22;8239;48.594;8.598;2022-09-13T04:22:30;8.40;99.90
16263;DHT22;8239;48.594;8.598;2022-09-13T04:24:59;8.50;99.90
16263;DHT22;8239;48.594;8.598;2022-09-13T04:27:26;8.60;99.90
16263;DHT22;8239;48.594;8.598;2022-09-13T04:29:53;8.60;99.90
16263;DHT22;8239;48.594;8.598;2022-09-13T04:32:20;8.70;99.90
16263;DHT22;8239;48.594;8.598;2022-09-13T04:34:47;8.70;99.90
16263;DHT22;8239;48.594;8.598;2022-09-13T04:37:14;8.80;99.90
16263;DHT22;8239;48.594;8.598;2022-09-13T04:39:42;8.80;99.90
16263;DHT22;8239;48.594;8.598;2022-09-13T04:42:13;8.80;99.90
16263;DHT22;8239;48.594;8.598;2022-09-13T04:44:40;8.80;99.90
16263;DHT22;8239;48.594;8.598;2022-09-13T04:47:08;8.80;99.90
16263;DHT22;8239;48.594;8.598;2022-09-13T04:49:35;8.80;99.90
16263;DHT22;8239;48.594;8.598;2022-09-13T04:52:02;8.80;99.90
16263;DHT22;8239;48.594;8.598;2022-09-13T04:54:29;8.80;99.90
16263;DHT22;8239;48.594;8.598;2022-09-13T04:56:56;8.70;99.90
16263;DHT22;8239;48.594;8.598;2022-09-13T04:59:25;8.70;99.90
16263;DHT22;8239;48.594;8.598;2022-09-13T05:01:52;8.70;99.90
16263;DHT22;8239;48.594;8.598;2022-09-13T05:04:19;8.70;99.90
16263;DHT22;8239;48.594;8.598;2022-09-13T05:06:46;8.70;99.90
16263;DHT22;8239;48.594;8.598;2022-09-13T05:09:14;8.80;99.90
16263;DHT22;8239;48.594;8.598;2022-09-13T05:11:41;8.80;99.90
16263;DHT22;8239;48.594;8.598;2022-09-13T05:14:09;8.80;99.90
16263;DHT22;8239;48.594;8.598;2022-09-13T05:16:38;8.80;99.90
16263;DHT22;8239;48.594;8.598;2022-09-13T05:19:05;8.80;99.90
16263;DHT22;8239;48.594;8.598;2022-09-13T05:21:32;8.80;99.90
16263;DHT22;8239;48.594;8.598;2022-09-13T05:24:00;8.80;99.90
16263;DHT22;8239;48.594;8.598;2022-09-13T05:26:28;8.90;99.90
16263;DHT22;8239;48.594;8.598;2022-09-13T05:28:56;8.90;99.90
16263;DHT22;8239;48.594;8.598;2022-09-13T05:31:25;9.00;99.90
16263;DHT22;8239;48.594;8.598;2022-09-13T05:33:56;9.10;99.90
16263;DHT22;8239;48.594;8.598;2022-09-13T05:36:24;9.20;99.90
16263;DHT22;8239;48.594;8.598;2022-09-13T05:38:51;9.30;99.90
16263;DHT22;8239;48.594;8.598;2022-09-13T05:41:19;9.50;99.90
16263;DHT22;8239;48.594;8.598;2022-09-13T05:43:46;9.60;99.90
16263;DHT22;8239;48.594;8.598;2022-09-13T05:46:14;9.70;99.90
16263;DHT22;8239;48.594;8.598;2022-09-13T05:48:42;9.80;99.90
16263;DHT22;8239;48.594;8.598;2022-09-13T05:51:12;9.90;99.90
16263;DHT22;8239;48.594;8.598;2022-09-13T05:53:41;10.10;99.90
16263;DHT22;8239;48.594;8.598;2022-09-13T05:56:11;10.30;99.90
16263;DHT22;8239;48.594;8.598;2022-09-13T05:58:39;10.50;99.90
16263;DHT22;8239;48.594;8.598;2022-09-13T06:01:08;10.60;99.90
16263;DHT22;8239;48.594;8.598;2022-09-13T06:03:35;10.80;99.90
16263;DHT22;8239;48.594;8.598;2022-09-13T06:06:03;10.90;99.90
16263;DHT22;8239;48.594;8.598;2022-09-13T06:08:33;11.00;99.90
16263;DHT22;8239;48.594;8.598;2022-09-13T06:11:02;11.10;99.90
16263;DHT22;8239;48.594;8.598;2022-09-13T06:13:30;11.20;99.90
16263;DHT22;8239;48.594;8.598;2022-09-13T06:15:58;11.30;99.90
16263;DHT22;8239;48.594;8.598;2022-09-13T06:18:26;11.40;99.90
16263;DHT22;8239;48.594;8.598;2022-09-13T06:20:57;11.50;99.90
16263;DHT22;8239;48.594;8.598;2022-09-13T06:23:26;11.90;99.90
16263;DHT22;8239;48.594;8.598;2022-09-13T06:26:02;12.70;99.90
16263;DHT22;8239;48.594;8.598;2022-09-13T06:28:31;13.70;99.90
16263;DHT22;8239;48.594;8.598;2022-09-13T06:31:02;14.90;99.90
16263;DHT22;8239;48.594;8.598;2022-09-13T06:33:30;16.20;99.90
16263;DHT22;8239;48.594;8.598;2022-09-13T06:36:02;17.50;99.90
16263;DHT22;8239;48.594;8.598;2022-09-13T06:38:29;18.90;99.90
16263;DHT22;8239;48.594;8.598;2022-09-13T06:41:02;20.10;99.90
16263;DHT22;8239;48.594;8.598;2022-09-13T06:43:30;21.10;99.90
16263;DHT22;8239;48.594;8.598;2022-09-13T06:46:01;22.00;98.80
16263;DHT22;8239;48.594;8.598;2022-09-13T06:48:31;22.80;94.70
16263;DHT22;8239;48.594;8.598;2022-09-13T06:50:59;23.50;92.40
16263;DHT22;8239;48.594;8.598;2022-09-13T06:53:26;24.10;90.40
16263;DHT22;8239;48.594;8.598;2022-09-13T06:56:02;24.70;84.80
16263;DHT22;8239;48.594;8.598;2022-09-13T06:58:30;25.30;77.60
16263;DHT22;8239;48.594;8.598;2022-09-13T07:01:08;25.80;75.30
16263;DHT22;8239;48.594;8.598;2022-09-13T07:03:38;26.20;72.50
16263;DHT22;8239;48.594;8.598;2022-09-13T07:06:10;26.80;69.10
16263;DHT22;8239;48.594;8.598;2022-09-13T07:08:38;27.40;64.20
16263;DHT22;8239;48.594;8.598;2022-09-13T07:11:07;27.70;61.10
16263;DHT22;8239;48.594;8.598;2022-09-13T07:13:34;28.40;58.50
16263;DHT22;8239;48.594;8.598;2022-09-13T07:16:02;29.00;57.40
16263;DHT22;8239;48.594;8.598;2022-09-13T07:18:30;29.70;55.80
16263;DHT22;8239;48.594;8.598;2022-09-13T07:21:01;30.20;53.90
16263;DHT22;8239;48.594;8.598;2022-09-13T07:23:30;30.70;51.90
16263;DHT22;8239;48.594;8.598;2022-09-13T07:25:57;31.20;50.00
16263;DHT22;8239;48.594;8.598;2022-09-13T07:28:32;31.70;49.40
16263;DHT22;8239;48.594;8.598;2022-09-13T07:31:05;32.30;48.20
16263;DHT22;8239;48.594;8.598;2022-09-13T07:33:32;32.90;46.60
16263;DHT22;8239;48.594;8.598;2022-09-13T07:36:00;33.20;44.70
16263;DHT22;8239;48.594;8.598;2022-09-13T07:38:31;33.20;43.70
16263;DHT22;8239;48.594;8.598;2022-09-13T07:40:58;33.20;43.30
16263;DHT22;8239;48.594;8.598;2022-09-13T07:43:26;33.50;42.80
16263;DHT22;8239;48.594;8.598;2022-09-13T07:45:58;33.50;42.60
16263;DHT22;8239;48.594;8.598;2022-09-13T07:48:26;33.70;42.10
16263;DHT22;8239;48.594;8.598;2022-09-13T07:51:01;33.90;41.80
16263;DHT22;8239;48.594;8.598;2022-09-13T07:53:29;34.40;41.20
16263;DHT22;8239;48.594;8.598;2022-09-13T07:56:00;34.90;41.00
16263;DHT22;8239;48.594;8.598;2022-09-13T07:58:28;35.20;39.90
16263;DHT22;8239;48.594;8.598;2022-09-13T08:01:02;35.20;40.10
16263;DHT22;8239;48.594;8.598;2022-09-13T08:03:30;35.30;40.20
16263;DHT22;8239;48.594;8.598;2022-09-13T08:05:57;35.60;39.70
16263;DHT22;8239;48.594;8.598;2022-09-13T08:08:24;35.60;39.10
16263;DHT22;8239;48.594;8.598;2022-09-13T08:10:51;35.80;39.30
16263;DHT22;8239;48.594;8.598;2022-09-13T08:13:19;35.90;39.10
16263;DHT22;8239;48.594;8.598;2022-09-13T08:15:46;36.30;39.20
16263;DHT22;8239;48.594;8.598;2022-09-13T08:18:14;37.10;38.30
16263;DHT22;8239;48.594;8.598;2022-09-13T08:20:41;37.90;38.30
16263;DHT22;8239;48.594;8.598;2022-09-13T08:23:09;38.60;37.30
16263;DHT22;8239;48.594;8.598;2022-09-13T08:25:38;39.20;37.00
16263;DHT22;8239;48.594;8.598;2022-09-13T08:28:05;39.80;35.60
16263;DHT22;8239;48.594;8.598;2022-09-13T08:30:33;40.20;35.20
16263;DHT22;8239;48.594;8.598;2022-09-13T08:33:02;40.20;35.10
16263;DHT22;8239;48.594;8.598;2022-09-13T08:35:31;40.20;35.20
16263;DHT22;8239;48.594;8.598;2022-09-13T08:37:59;40.50;35.50
16263;DHT22;8239;48.594;8.598;2022-09-13T08:40:29;40.90;33.30
16263;DHT22;8239;48.594;8.598;2022-09-13T08:43:02;40.80;32.80
16263;DHT22;8239;48.594;8.598;2022-09-13T08:45:32;40.60;31.90
16263;DHT22;8239;48.594;8.598;2022-09-13T08:48:03;39.90;32.10
16263;DHT22;8239;48.594;8.598;2022-09-13T08:50:34;39.10;33.80
16263;DHT22;8239;48.594;8.598;2022-09-13T08:53:19;39.10;34.40
16263;DHT22;8239;48.594;8.598;2022-09-13T08:55:57;39.30;34.20
16263;DHT22;8239;48.594;8.598;2022-09-13T08:58:37;39.90;33.50
16263;DHT22;8239;48.594;8.598;2022-09-13T09:01:17;40.40;31.90
16263;DHT22;8239;48.594;8.598;2022-09-13T09:03:50;40.70;31.60
16263;DHT22;8239;48.594;8.598;2022-09-13T09:06:20;40.30;30.70
16263;DHT22;8239;48.594;8.598;2022-09-13T09:08:51;40.20;31.00
16263;DHT22;8239;48.594;8.598;2022-09-13T09:11:26;40.60;31.30
16263;DHT22;8239;48.594;8.598;2022-09-13T09:14:01;40.90;30.70
16263;DHT22;8239;48.594;8.598;2022-09-13T09:16:34;40.90;29.70
16263;DHT22;8239;48.594;8.598;2022-09-13T09:19:12;41.00;30.50
16263;DHT22;8239;48.594;8.598;2022-09-13T09:21:44;41.10;30.60
16263;DHT22;8239;48.594;8.598;2022-09-13T09:24:17;40.90;30.20
16263;DHT22;8239;48.594;8.598;2022-09-13T09:26:47;40.30;30.20
16263;DHT22;8239;48.594;8.598;2022-09-13T09:29:17;39.70;30.80
16263;DHT22;8239;48.594;8.598;2022-09-13T09:31:53;39.30;31.20
16263;DHT22;8239;48.594;8.598;2022-09-13T09:34:29;39.50;31.30
16263;DHT22;8239;48.594;8.598;2022-09-13T09:37:15;39.40;30.50
16263;DHT22;8239;48.594;8.598;2022-09-13T09:39:43;39.40;30.40
16263;DHT22;8239;48.594;8.598;2022-09-13T09:42:12;39.10;30.40
16263;DHT22;8239;48.594;8.598;2022-09-13T09:44:43;39.50;30.60
16263;DHT22;8239;48.594;8.598;2022-09-13T09:47:15;39.70;30.10
16263;DHT22;8239;48.594;8.598;2022-09-13T09:49:46;40.00;29.70
16263;DHT22;8239;48.594;8.598;2022-09-13T09:52:37;40.50;29.10
16263;DHT22;8239;48.594;8.598;2022-09-13T09:55:20;41.20;28.30
16263;DHT22;8239;48.594;8.598;2022-09-13T09:57:53;41.20;27.10
16263;DHT22;8239;48.594;8.598;2022-09-13T10:00:22;41.60;27.50
16263;DHT22;8239;48.594;8.598;2022-09-13T10:02:52;42.10;27.20
16263;DHT22;8239;48.594;8.598;2022-09-13T10:05:22;42.40;26.80
16263;DHT22;8239;48.594;8.598;2022-09-13T10:08:03;42.70;27.00
16263;DHT22;8239;48.594;8.598;2022-09-13T10:10:36;42.70;26.30
16263;DHT22;8239;48.594;8.598;2022-09-13T10:13:13;42.30;25.40
16263;DHT22;8239;48.594;8.598;2022-09-13T10:15:52;41.40;25.90
16263;DHT22;8239;48.594;8.598;2022-09-13T10:18:21;41.30;26.70
16263;DHT22;8239;48.594;8.598;2022-09-13T10:21:00;41.50;26.60
16263;DHT22;8239;48.594;8.598;2022-09-13T10:23:30;41.40;26.70
16263;DHT22;8239;48.594;8.598;2022-09-13T10:26:06;41.20;26.70
16263;DHT22;8239;48.594;8.598;2022-09-13T10:28:42;40.60;27.30
16263;DHT22;8239;48.594;8.598;2022-09-13T10:31:12;40.00;27.90
16263;DHT22;8239;48.594;8.598;2022-09-13T10:33:41;39.10;28.00
16263;DHT22;8239;48.594;8.598;2022-09-13T10:36:15;38.40;28.90
16263;DHT22;8239;48.594;8.598;2022-09-13T10:38:49;37.10;30.00
16263;DHT22;8239;48.594;8.598;2022-09-13T10:41:21;36.70;31.60
16263;DHT22;8239;48.594;8.598;2022-09-13T10:43:56;36.40;31.70
16263;DHT22;8239;48.594;8.598;2022-09-13T10:46:26;35.90;31.80
16263;DHT22;8239;48.594;8.598;2022-09-13T10:48:56;35.70;32.20
16263;DHT22;8239;48.594;8.598;2022-09-13T10:51:32;35.70;32.40
16263;DHT22;8239;48.594;8.598;2022-09-13T10:54:18;36.20;32.50
16263;DHT22;8239;48.594;8.598;2022-09-13T10:56:47;36.40;31.10
16263;DHT22;8239;48.594;8.598;2022-09-13T10:59:23;36.50;31.60
16263;DHT22;8239;48.594;8.598;2022-09-13T11:02:03;37.20;31.00
16263;DHT22;8239;48.594;8.598;2022-09-13T11:04:55;38.20;29.70
16263;DHT22;8239;48.594;8.598;2022-09-13T11:07:55;38.80;28.90
16263;DHT22;8239;48.594;8.598;2022-09-13T11:10:33;39.10;27.90
16263;DHT22;8239;48.594;8.598;2022-09-13T11:13:06;39.30;28.30
16263;DHT22;8239;48.594;8.598;2022-09-13T11:15:48;38.60;28.00
16263;DHT22;8239;48.594;8.598;2022-09-13T11:21:38;39.00;28.80
16263;DHT22;8239;48.594;8.598;2022-09-13T11:24:23;39.30;27.60
16263;DHT22;8239;48.594;8.598;2022-09-13T11:26:59;39.20;27.80
16263;DHT22;8239;48.594;8.598;2022-09-13T11:35:47;40.70;26.80
16263;DHT22;8239;48.594;8.598;2022-09-13T11:38:37;40.70;27.00
16263;DHT22;8239;48.594;8.598;2022-09-13T11:41:20;40.90;27.00
16263;DHT22;8239;48.594;8.598;2022-09-13T11:44:21;41.10;27.10
16263;DHT22;8239;48.594;8.598;2022-09-13T11:46:58;40.90;27.30
16263;DHT22;8239;48.594;8.598;2022-09-13T11:49:50;40.30;27.50
16263;DHT22;8239;48.594;8.598;2022-09-13T11:52:33;39.40;27.50
16263;DHT22;8239;48.594;8.598;2022-09-13T11:55:13;38.80;28.20
16263;DHT22;8239;48.594;8.598;2022-09-13T11:57:45;38.30;28.70
16263;DHT22;8239;48.594;8.598;2022-09-13T12:00:20;38.30;29.30
16263;DHT22;8239;48.594;8.598;2022-09-13T12:02:56;38.30;29.10
16263;DHT22;8239;48.594;8.598;2022-09-13T12:05:26;37.50;28.50
16263;DHT22;8239;48.594;8.598;2022-09-13T12:07:58;37.00;29.30
16263;DHT22;8239;48.594;8.598;2022-09-13T12:10:31;36.80;30.40
16263;DHT22;8239;48.594;8.598;2022-09-13T12:13:01;37.30;30.10
16263;DHT22;8239;48.594;8.598;2022-09-13T12:15:35;37.30;29.20
16263;DHT22;8239;48.594;8.598;2022-09-13T12:18:07;37.50;30.00
16263;DHT22;8239;48.594;8.598;2022-09-13T12:20:38;37.70;29.50
16263;DHT22;8239;48.594;8.598;2022-09-13T12:23:11;38.00;29.10
16263;DHT22;8239;48.594;8.598;2022-09-13T12:25:46;37.70;28.30
16263;DHT22;8239;48.594;8.598;2022-09-13T12:28:18;37.20;29.00
16263;DHT22;8239;48.594;8.598;2022-09-13T12:30:52;37.00;29.30
16263;DHT22;8239;48.594;8.598;2022-09-13T12:33:21;36.60;29.90
16263;DHT22;8239;48.594;8.598;2022-09-13T12:36:15;36.20;30.00
16263;DHT22;8239;48.594;8.598;2022-09-13T12:41:55;35.50;31.50
16263;DHT22;8239;48.594;8.598;2022-09-13T12:44:40;34.90;31.20
16263;DHT22;8239;48.594;8.598;2022-09-13T12:47:40;34.60;32.80
16263;DHT22;8239;48.594;8.598;2022-09-13T12:50:39;34.20;33.90
16263;DHT22;8239;48.594;8.598;2022-09-13T12:53:26;33.20;33.80
16263;DHT22;8239;48.594;8.598;2022-09-13T12:56:02;32.90;35.00
16263;DHT22;8239;48.594;8.598;2022-09-13T12:59:11;32.70;34.40
16263;DHT22;8239;48.594;8.598;2022-09-13T13:01:47;32.60;34.20
16263;DHT22;8239;48.594;8.598;2022-09-13T13:04:18;32.80;35.20
16263;DHT22;8239;48.594;8.598;2022-09-13T13:06:49;33.00;33.90
16263;DHT22;8239;48.594;8.598;2022-09-13T13:09:24;33.30;34.30
16263;DHT22;8239;48.594;8.598;2022-09-13T13:11:53;33.60;33.60
16263;DHT22;8239;48.594;8.598;2022-09-13T13:14:44;33.50;33.10
16263;DHT22;8239;48.594;8.598;2022-09-13T13:17:34;33.50;34.40
16263;DHT22;8239;48.594;8.598;2022-09-13T13:23:14;33.00;34.30
16263;DHT22;8239;48.594;8.598;2022-09-13T13:25:58;33.20;34.20
16263;DHT22;8239;48.594;8.598;2022-09-13T13:31:40;34.60;32.40
16263;DHT22;8239;48.594;8.598;2022-09-13T13:34:28;34.90;32.10
16263;DHT22;8239;48.594;8.598;2022-09-13T13:36:59;35.20;31.30
16263;DHT22;8239;48.594;8.598;2022-09-13T13:39:39;35.40;31.30
16263;DHT22;8239;48.594;8.598;2022-09-13T13:42:23;35.20;30.70
16263;DHT22;8239;48.594;8.598;2022-09-13T13:45:13;35.00;31.20
16263;DHT22;8239;48.594;8.598;2022-09-13T13:47:55;34.70;31.70
16263;DHT22;8239;48.594;8.598;2022-09-13T13:50:31;34.40;32.00
16263;DHT22;8239;48.594;8.598;2022-09-13T13:52:59;34.00;32.80
16263;DHT22;8239;48.594;8.598;2022-09-13T13:55:43;33.80;33.30
16263;DHT22;8239;48.594;8.598;2022-09-13T13:58:36;33.50;32.80
16263;DHT22;8239;48.594;8.598;2022-09-13T14:01:15;33.10;34.20
16263;DHT22;8239;48.594;8.598;2022-09-13T14:03:57;33.50;34.40
16263;DHT22;8239;48.594;8.598;2022-09-13T14:06:33;34.20;34.00
16263;DHT22;8239;48.594;8.598;2022-09-13T14:09:13;34.50;32.60
16263;DHT22;8239;48.594;8.598;2022-09-13T14:11:57;34.40;33.00
16263;DHT22;8239;48.594;8.598;2022-09-13T14:14:44;34.30;33.90
16263;DHT22;8239;48.594;8.598;2022-09-13T14:17:40;34.10;34.00
16263;DHT22;8239;48.594;8.598;2022-09-13T14:20:13;33.90;34.40
16263;DHT22;8239;48.594;8.598;2022-09-13T14:22:42;33.50;34.40
16263;DHT22;8239;48.594;8.598;2022-09-13T14:25:15;33.10;35.70
16263;DHT22;8239;48.594;8.598;2022-09-13T14:27:49;32.70;36.00
16263;DHT22;8239;48.594;8.598;2022-09-13T14:30:21;32.40;37.10
16263;DHT22;8239;48.594;8.598;2022-09-13T14:32:50;32.10;37.20
16263;DHT22;8239;48.594;8.598;2022-09-13T14:35:26;31.60;37.60
16263;DHT22;8239;48.594;8.598;2022-09-13T14:37:53;31.30;38.30
16263;DHT22;8239;48.594;8.598;2022-09-13T14:40:24;31.00;38.90
16263;DHT22;8239;48.594;8.598;2022-09-13T14:42:54;30.70;40.10
16263;DHT22;8239;48.594;8.598;2022-09-13T14:45:25;30.40;42.00
16263;DHT22;8239;48.594;8.598;2022-09-13T14:47:57;30.20;41.50
16263;DHT22;8239;48.594;8.598;2022-09-13T14:50:29;30.00;42.40
16263;DHT22;8239;48.594;8.598;2022-09-13T14:52:59;30.00;42.40
16263;DHT22;8239;48.594;8.598;2022-09-13T14:55:28;30.00;42.30
16263;DHT22;8239;48.594;8.598;2022-09-13T14:58:00;30.10;42.10
16263;DHT22;8239;48.594;8.598;2022-09-13T15:00:30;30.20;41.50
16263;DHT22;8239;48.594;8.598;2022-09-13T15:03:09;30.20;40.70
16263;DHT22;8239;48.594;8.598;2022-09-13T15:05:38;30.30;40.50
16263;DHT22;8239;48.594;8.598;2022-09-13T15:11:12;31.20;39.80
16263;DHT22;8239;48.594;8.598;2022-09-13T15:13:41;31.30;38.40
16263;DHT22;8239;48.594;8.598;2022-09-13T15:16:24;31.00;37.80
16263;DHT22;8239;48.594;8.598;2022-09-13T15:19:19;30.80;38.20
16263;DHT22;8239;48.594;8.598;2022-09-13T15:21:53;30.20;38.70
16263;DHT22;8239;48.594;8.598;2022-09-13T15:24:32;29.80;39.20
16263;DHT22;8239;48.594;8.598;2022-09-13T15:27:05;29.40;39.70
16263;DHT22;8239;48.594;8.598;2022-09-13T15:29:34;29.10;40.20
16263;DHT22;8239;48.594;8.598;2022-09-13T15:32:02;28.80;41.00
16263;DHT22;8239;48.594;8.598;2022-09-13T15:34:30;28.50;41.70
16263;DHT22;8239;48.594;8.598;2022-09-13T15:37:11;28.30;41.70
16263;DHT22;8239;48.594;8.598;2022-09-13T15:39:42;28.20;41.60
16263;DHT22;8239;48.594;8.598;2022-09-13T15:42:10;28.00;41.50
16263;DHT22;8239;48.594;8.598;2022-09-13T15:44:38;27.80;41.40
16263;DHT22;8239;48.594;8.598;2022-09-13T15:47:09;27.60;40.70
16263;DHT22;8239;48.594;8.598;2022-09-13T15:49:38;27.40;41.10
16263;DHT22;8239;48.594;8.598;2022-09-13T15:52:06;27.20;40.80
16263;DHT22;8239;48.594;8.598;2022-09-13T15:54:35;27.00;41.10
16263;DHT22;8239;48.594;8.598;2022-09-13T15:57:06;26.80;41.20
16263;DHT22;8239;48.594;8.598;2022-09-13T15:59:34;26.60;41.60
16263;DHT22;8239;48.594;8.598;2022-09-13T16:02:17;26.50;41.80
16263;DHT22;8239;48.594;8.598;2022-09-13T16:04:45;26.40;42.70
16263;DHT22;8239;48.594;8.598;2022-09-13T16:07:12;26.30;43.20
16263;DHT22;8239;48.594;8.598;2022-09-13T16:09:39;26.20;43.50
16263;DHT22;8239;48.594;8.598;2022-09-13T16:12:06;26.10;44.10
16263;DHT22;8239;48.594;8.598;2022-09-13T16:14:33;26.10;44.40
16263;DHT22;8239;48.594;8.598;2022-09-13T16:17:05;26.10;44.80
16263;DHT22;8239;48.594;8.598;2022-09-13T16:19:33;26.10;45.20
16263;DHT22;8239;48.594;8.598;2022-09-13T16:22:00;26.10;46.10
16263;DHT22;8239;48.594;8.598;2022-09-13T16:24:27;26.10;46.30
16263;DHT22;8239;48.594;8.598;2022-09-13T16:26:54;26.10;47.00
16263;DHT22;8239;48.594;8.598;2022-09-13T16:29:21;26.10;47.40
16263;DHT22;8239;48.594;8.598;2022-09-13T16:31:48;26.10;47.50
16263;DHT22;8239;48.594;8.598;2022-09-13T16:34:17;26.40;47.40
16263;DHT22;8239;48.594;8.598;2022-09-13T16:36:44;27.00;46.10
16263;DHT22;8239;48.594;8.598;2022-09-13T16:39:11;27.50;44.70
16263;DHT22;8239;48.594;8.598;2022-09-13T16:41:38;27.70;44.50
16263;DHT22;8239;48.594;8.598;2022-09-13T16:44:05;27.80;44.10
16263;DHT22;8239;48.594;8.598;2022-09-13T16:46:33;27.70;44.10
16263;DHT22;8239;48.594;8.598;2022-09-13T16:49:00;27.50;44.30
16263;DHT22;8239;48.594;8.598;2022-09-13T16:51:29;27.20;44.70
16263;DHT22;8239;48.594;8.598;2022-09-13T16:53:56;26.80;45.00